Time;durP1;ratioP1;P1;durP2;ratioP2;P2;SDS_P1;SDS_P2;PMS_P1;PMS_P2;Temp;Humidity;BMP_temperature;BMP_pressure;BME280_temperature;BME280_humidity;BME280_pressure;Samples;Min_cycle;Max_cycle;Signal;HPM_P1;HPM_P2
2021/10/08 00:01:11;;;;;;;58.17;2.63;;;9.60;1.00;;;;;;5133016;27;20455;-72
2021/10/08 00:03:37;;;;;;;58.47;3.30;;;9.60;1.00;;;;;;5138912;27;20451;-72
2021/10/08 00:06:04;;;;;;;58.07;2.47;;;9.60;1.00;;;;;;5138306;27;20567;-71
2021/10/08 00:08:32;;;;;;;58.27;2.70;;;9.60;1.00;;;;;;5138799;27;20495;-71
2021/10/08 00:10:59;;;;;;;58.40;2.60;;;9.60;1.00;;;;;;5141674;27;20538;-72
2021/10/08 00:13:26;;;;;;;58.23;2.80;;;9.60;1.00;;;;;;5141282;27;20534;-73
2021/10/08 00:15:53;;;;;;;58.43;2.77;;;9.50;1.00;;;;;;5140357;27;20449;-73
2021/10/08 00:18:20;;;;;;;58.33;2.73;;;9.50;1.00;;;;;;5140754;27;20500;-74
2021/10/08 00:20:47;;;;;;;58.47;2.83;;;9.40;1.00;;;;;;5138938;27;20484;-72
2021/10/08 00:23:14;;;;;;;58.27;2.80;;;9.30;1.00;;;;;;5139611;27;20720;-71
2021/10/08 00:25:42;;;;;;;58.33;2.50;;;9.20;1.00;;;;;;5140056;27;20522;-72
2021/10/08 00:28:09;;;;;;;60.40;2.90;;;9.10;1.00;;;;;;5131894;27;20536;-72
2021/10/08 00:30:35;;;;;;;58.57;3.27;;;9.10;1.00;;;;;;5132754;27;20538;-72
2021/10/08 00:33:02;;;;;;;58.47;3.20;;;9.00;1.00;;;;;;5129818;27;20541;-72
2021/10/08 00:35:29;;;;;;;58.03;2.80;;;8.90;1.00;;;;;;5131959;28;20537;-72
2021/10/08 00:37:56;;;;;;;58.37;2.80;;;8.90;1.00;;;;;;5131918;28;20546;-72
2021/10/08 00:40:23;;;;;;;59.30;3.03;;;8.80;1.00;;;;;;5132198;28;20880;-72
2021/10/08 00:42:52;;;;;;;58.70;3.20;;;8.70;1.00;;;;;;5131923;28;20842;-72
2021/10/08 00:45:19;;;;;;;58.60;3.20;;;8.60;1.00;;;;;;5132019;28;20571;-72
2021/10/08 00:47:56;;;;;;;58.37;2.80;;;8.60;1.00;;;;;;5131178;28;20827;-72
2021/10/08 00:50:23;;;;;;;58.53;2.80;;;8.50;1.00;;;;;;5132689;28;20446;-72
2021/10/08 00:52:50;;;;;;;58.43;2.57;;;8.50;1.00;;;;;;5131881;28;20459;-72
2021/10/08 00:55:16;;;;;;;58.40;2.90;;;8.40;1.00;;;;;;5132019;28;20627;-72
2021/10/08 00:57:45;;;;;;;58.43;2.90;;;8.40;1.00;;;;;;5131706;28;20537;-72
2021/10/08 01:00:14;;;;;;;58.37;2.70;;;8.30;1.00;;;;;;5131736;28;20892;-72
2021/10/08 01:02:42;;;;;;;58.27;2.80;;;8.30;1.00;;;;;;5132708;28;20542;-72
2021/10/08 01:05:10;;;;;;;58.80;2.93;;;8.20;1.00;;;;;;5129682;28;20473;-72
2021/10/08 01:07:36;;;;;;;58.37;2.80;;;8.10;1.00;;;;;;5131207;28;20448;-72
2021/10/08 01:10:04;;;;;;;58.60;2.97;;;8.10;1.00;;;;;;5132123;28;20538;-72
2021/10/08 01:12:33;;;;;;;58.37;2.73;;;8.10;1.00;;;;;;5131681;28;20532;-72
2021/10/08 01:15:00;;;;;;;58.40;2.80;;;8.10;1.00;;;;;;5131729;28;20498;-72
2021/10/08 01:17:28;;;;;;;58.37;2.80;;;8.10;1.00;;;;;;5131814;28;20538;-72
2021/10/08 01:19:59;;;;;;;58.90;3.10;;;8.10;1.00;;;;;;5131945;28;20535;-72
2021/10/08 01:22:26;;;;;;;58.37;2.70;;;8.00;1.00;;;;;;5131909;28;20533;-72
2021/10/08 01:24:53;;;;;;;58.37;2.67;;;8.00;1.00;;;;;;5131392;28;20490;-72
2021/10/08 01:27:23;;;;;;;58.37;2.50;;;8.00;1.00;;;;;;5130947;28;20538;-73
2021/10/08 01:29:51;;;;;;;58.60;2.90;;;7.90;1.00;;;;;;5131894;28;20578;-72
2021/10/08 01:32:19;;;;;;;58.80;2.80;;;7.90;1.00;;;;;;5131688;28;20534;-72
2021/10/08 01:34:46;;;;;;;58.53;3.00;;;7.90;1.00;;;;;;5132000;28;20220;-72
2021/10/08 01:37:14;;;;;;;58.50;2.70;;;7.80;1.00;;;;;;5129153;28;20454;-72
2021/10/08 01:39:41;;;;;;;58.43;2.80;;;7.80;1.00;;;;;;5131466;27;20993;-72
2021/10/08 01:42:08;;;;;;;58.80;2.78;;;7.70;1.00;;;;;;5135506;27;20544;-72
2021/10/08 01:44:35;;;;;;;58.47;2.90;;;7.70;1.00;;;;;;5135400;27;20234;-72
2021/10/08 01:47:02;;;;;;;58.33;2.60;;;7.70;1.00;;;;;;5132084;27;20645;-72
2021/10/08 01:49:29;;;;;;;58.67;2.65;;;7.60;1.00;;;;;;5135223;27;20549;-72
2021/10/08 01:51:56;;;;;;;58.50;2.50;;;7.60;1.00;;;;;;5135758;27;20289;-72
2021/10/08 01:54:24;;;;;;;58.47;3.00;;;7.60;1.00;;;;;;5135223;27;20473;-72
2021/10/08 01:56:51;;;;;;;59.07;3.00;;;7.50;1.00;;;;;;5134918;27;20466;-72
2021/10/08 01:59:18;;;;;;;59.97;3.10;;;7.50;1.00;;;;;;5134953;27;20898;-72
2021/10/08 02:01:45;;;;;;;58.55;2.63;;;7.40;1.00;;;;;;5135055;27;20446;-72
2021/10/08 02:04:12;;;;;;;58.63;2.70;;;7.40;1.00;;;;;;5135010;27;20644;-72
2021/10/08 02:06:40;;;;;;;58.47;2.63;;;7.40;1.00;;;;;;5134674;27;20518;-72
2021/10/08 02:09:07;;;;;;;58.40;2.77;;;7.40;1.00;;;;;;5132648;27;20482;-73
2021/10/08 02:11:35;;;;;;;58.57;2.90;;;7.40;1.00;;;;;;5135135;27;20451;-72
2021/10/08 02:14:02;;;;;;;58.37;2.90;;;7.30;1.00;;;;;;5134647;27;20914;-72
2021/10/08 02:16:29;;;;;;;58.57;2.80;;;7.30;1.00;;;;;;5134349;27;20531;-72
2021/10/08 02:18:57;;;;;;;58.57;3.00;;;7.30;1.00;;;;;;5134326;27;20469;-73
2021/10/08 02:21:25;;;;;;;58.38;2.83;;;7.30;1.00;;;;;;5134251;27;20489;-72
2021/10/08 02:23:52;;;;;;;58.45;2.90;;;7.30;1.00;;;;;;5134898;27;20292;-72
2021/10/08 02:26:20;;;;;;;58.47;2.77;;;7.30;1.00;;;;;;5133824;27;20318;-73
2021/10/08 02:28:48;;;;;;;58.47;2.90;;;7.30;1.00;;;;;;5134273;27;20981;-72
2021/10/08 02:31:16;;;;;;;58.37;2.70;;;7.30;1.00;;;;;;5134595;27;20507;-72
2021/10/08 02:33:43;;;;;;;58.80;3.00;;;7.30;1.00;;;;;;5134697;27;20480;-73
2021/10/08 02:36:11;;;;;;;58.27;2.90;;;7.20;1.00;;;;;;5134333;27;20447;-72
2021/10/08 02:38:40;;;;;;;58.50;2.80;;;7.20;1.00;;;;;;5134119;27;20553;-72
2021/10/08 02:41:07;;;;;;;58.28;2.60;;;7.10;1.00;;;;;;5132638;27;20451;-72
2021/10/08 02:43:34;;;;;;;58.60;2.63;;;7.10;1.00;;;;;;5134440;27;20292;-72
2021/10/08 02:46:06;;;;;;;58.50;2.70;;;7.10;1.00;;;;;;5133420;27;20595;-72
2021/10/08 02:48:33;;;;;;;58.70;2.78;;;7.00;1.00;;;;;;5134115;27;20231;-72
2021/10/08 02:51:00;;;;;;;60.28;4.10;;;7.00;1.00;;;;;;5133615;27;20304;-72
2021/10/08 02:53:27;;;;;;;58.78;2.70;;;7.00;1.00;;;;;;5133864;27;20295;-72
2021/10/08 02:55:54;;;;;;;58.53;2.70;;;7.00;1.00;;;;;;5134260;27;20206;-72
2021/10/08 02:58:20;;;;;;;58.47;2.80;;;7.00;1.00;;;;;;5133501;27;20497;-72
2021/10/08 03:00:47;;;;;;;58.38;2.72;;;7.00;1.00;;;;;;5134203;27;20239;-72
2021/10/08 03:03:16;;;;;;;58.60;2.80;;;6.90;1.00;;;;;;5133839;27;20295;-72
2021/10/08 03:05:42;;;;;;;58.58;2.55;;;6.90;1.00;;;;;;5132892;27;20522;-72
2021/10/08 03:08:09;;;;;;;58.55;2.58;;;6.90;1.00;;;;;;5133765;27;20607;-72
2021/10/08 03:10:37;;;;;;;58.43;2.90;;;6.90;1.00;;;;;;5132938;27;20288;-72
2021/10/08 03:13:03;;;;;;;58.40;2.60;;;6.80;1.00;;;;;;5131561;27;20457;-72
2021/10/08 03:15:31;;;;;;;59.17;3.10;;;6.80;1.00;;;;;;5133524;27;20486;-72
2021/10/08 03:17:58;;;;;;;58.45;2.67;;;6.80;1.00;;;;;;5133487;27;20785;-72
2021/10/08 03:20:26;;;;;;;58.58;2.75;;;6.80;1.00;;;;;;5133612;27;20210;-72
2021/10/08 03:22:53;;;;;;;58.70;2.90;;;6.80;1.00;;;;;;5133160;27;20208;-72
2021/10/08 03:25:20;;;;;;;58.47;2.80;;;6.80;1.00;;;;;;5132853;27;20325;-73
2021/10/08 03:27:46;;;;;;;58.37;2.73;;;6.70;1.00;;;;;;5132937;27;20440;-72
2021/10/08 03:30:15;;;;;;;58.38;2.70;;;6.70;1.00;;;;;;5132401;27;20456;-72
2021/10/08 03:32:43;;;;;;;58.47;2.50;;;6.70;1.00;;;;;;5133606;27;20215;-72
2021/10/08 03:35:11;;;;;;;58.88;3.28;;;6.60;1.00;;;;;;5133136;27;20536;-72
2021/10/08 03:37:47;;;;;;;58.70;2.90;;;6.60;1.00;;;;;;5132801;27;20625;-72
2021/10/08 03:40:21;;;;;;;58.47;2.90;;;6.60;1.00;;;;;;5133490;27;20491;-72
2021/10/08 03:42:48;;;;;;;59.37;3.37;;;6.60;1.00;;;;;;5133085;27;20204;-72
2021/10/08 03:45:15;;;;;;;58.60;2.70;;;6.60;1.00;;;;;;5131647;27;20450;-72
2021/10/08 03:47:56;;;;;;;58.78;3.20;;;6.50;1.00;;;;;;5132323;27;20204;-72
2021/10/08 03:50:23;;;;;;;58.85;2.88;;;6.50;1.00;;;;;;5132133;27;20917;-72
2021/10/08 03:52:51;;;;;;;58.72;3.42;;;6.50;1.00;;;;;;5133483;27;20211;-72
2021/10/08 03:55:18;;;;;;;58.38;2.72;;;6.50;1.00;;;;;;5132629;27;20211;-72
2021/10/08 03:57:45;;;;;;;58.25;2.65;;;6.50;1.00;;;;;;5132561;27;20222;-72
2021/10/08 04:00:12;;;;;;;58.60;2.60;;;6.50;1.00;;;;;;5133020;27;20203;-73
2021/10/08 04:02:39;;;;;;;57.97;2.70;;;6.40;1.00;;;;;;5132067;27;20292;-72
2021/10/08 04:05:07;;;;;;;58.47;2.78;;;6.50;1.00;;;;;;5132660;27;21017;-72
2021/10/08 04:07:34;;;;;;;58.27;2.50;;;6.50;1.00;;;;;;5132160;27;20207;-72
2021/10/08 04:10:02;;;;;;;58.28;2.90;;;6.50;1.00;;;;;;5132483;27;20488;-72
2021/10/08 04:12:29;;;;;;;58.58;3.03;;;6.50;1.00;;;;;;5132831;27;20621;-72
2021/10/08 04:14:56;;;;;;;57.77;3.10;;;6.50;1.00;;;;;;5132406;27;20209;-72
2021/10/08 04:17:23;;;;;;;58.60;2.75;;;6.60;1.00;;;;;;5129996;27;20525;-72
2021/10/08 04:19:49;;;;;;;58.47;2.80;;;6.60;1.00;;;;;;5132519;27;20267;-72
2021/10/08 04:22:16;;;;;;;58.58;3.00;;;6.50;1.00;;;;;;5132469;27;20256;-72
2021/10/08 04:24:43;;;;;;;58.50;2.80;;;6.50;1.00;;;;;;5132383;27;20251;-72
2021/10/08 04:27:12;;;;;;;58.50;2.80;;;6.40;1.00;;;;;;5131836;27;20447;-72
2021/10/08 04:29:38;;;;;;;58.47;2.90;;;6.40;1.00;;;;;;5132011;27;20560;-72
2021/10/08 04:32:06;;;;;;;58.60;2.97;;;6.40;1.00;;;;;;5131830;27;20290;-72
2021/10/08 04:34:33;;;;;;;58.45;2.65;;;6.40;1.00;;;;;;5132370;27;20209;-73
2021/10/08 04:37:00;;;;;;;58.17;3.07;;;6.30;1.00;;;;;;5132468;28;20230;-72
2021/10/08 04:39:26;;;;;;;58.70;3.05;;;6.30;1.00;;;;;;5131908;28;20545;-72
2021/10/08 04:41:53;;;;;;;58.53;2.67;;;6.30;1.00;;;;;;5132483;28;20294;-72
2021/10/08 04:44:21;;;;;;;58.60;3.00;;;6.30;1.00;;;;;;5132347;28;20291;-72
2021/10/08 04:46:48;;;;;;;58.47;3.00;;;6.30;1.00;;;;;;5132156;28;20196;-72
2021/10/08 04:49:15;;;;;;;58.55;2.83;;;6.20;1.00;;;;;;5130291;28;20310;-72
2021/10/08 04:51:43;;;;;;;58.60;3.00;;;6.20;1.00;;;;;;5131599;28;20694;-72
2021/10/08 04:54:10;;;;;;;58.08;2.90;;;6.20;1.00;;;;;;5132232;28;20208;-72
2021/10/08 04:56:37;;;;;;;58.58;2.78;;;6.20;1.00;;;;;;5131660;28;20684;-72
2021/10/08 04:59:04;;;;;;;58.37;2.70;;;6.20;1.00;;;;;;5131855;28;20228;-72
2021/10/08 05:01:32;;;;;;;58.58;2.90;;;6.20;1.00;;;;;;5132339;28;20544;-72
2021/10/08 05:03:59;;;;;;;58.55;2.72;;;6.20;1.00;;;;;;5131967;28;20204;-72
2021/10/08 05:06:26;;;;;;;58.40;2.70;;;6.20;1.00;;;;;;5131688;28;20242;-72
2021/10/08 05:08:53;;;;;;;58.53;2.70;;;6.20;1.00;;;;;;5132099;28;20266;-72
2021/10/08 05:11:20;;;;;;;58.45;2.90;;;6.20;1.00;;;;;;5131310;28;20210;-73
2021/10/08 05:13:47;;;;;;;59.40;3.22;;;6.20;1.00;;;;;;5132125;27;20221;-72
2021/10/08 05:16:14;;;;;;;58.80;2.70;;;6.20;1.00;;;;;;5134395;27;20235;-72
2021/10/08 05:18:42;;;;;;;58.88;2.90;;;6.20;1.00;;;;;;5136045;27;20256;-72
2021/10/08 05:21:09;;;;;;;58.55;2.60;;;6.10;1.00;;;;;;5136034;27;20236;-72
2021/10/08 05:23:36;;;;;;;58.38;2.70;;;6.10;1.00;;;;;;5133783;27;20287;-72
2021/10/08 05:26:04;;;;;;;58.28;2.60;;;6.10;1.00;;;;;;5135413;27;20231;-72
2021/10/08 05:28:31;;;;;;;58.65;3.00;;;6.10;1.00;;;;;;5135944;27;20755;-72
2021/10/08 05:30:58;;;;;;;58.50;2.50;;;6.10;1.00;;;;;;5135009;27;20577;-72
2021/10/08 05:33:25;;;;;;;58.38;2.83;;;6.10;1.00;;;;;;5135470;27;20455;-72
2021/10/08 05:35:53;;;;;;;58.47;2.90;;;6.10;1.00;;;;;;5134984;27;20478;-72
2021/10/08 05:38:20;;;;;;;58.60;2.70;;;6.00;1.00;;;;;;5135479;27;20277;-73
2021/10/08 05:40:48;;;;;;;58.30;2.65;;;6.10;1.00;;;;;;5135453;27;20742;-72
2021/10/08 05:43:15;;;;;;;58.38;2.65;;;6.10;1.00;;;;;;5135376;27;20212;-72
2021/10/08 05:45:42;;;;;;;58.38;2.75;;;6.00;1.00;;;;;;5135414;27;20204;-72
2021/10/08 05:48:09;;;;;;;58.63;2.80;;;6.00;1.00;;;;;;5135285;27;20215;-72
2021/10/08 05:50:36;;;;;;;58.50;2.80;;;6.10;1.00;;;;;;5135101;27;20209;-72
2021/10/08 05:53:06;;;;;;;58.35;2.80;;;6.00;1.00;;;;;;5134254;27;20614;-72
2021/10/08 05:55:33;;;;;;;58.38;2.65;;;6.00;1.00;;;;;;5134285;27;20303;-72
2021/10/08 05:58:00;;;;;;;58.58;2.65;;;6.00;1.00;;;;;;5135527;27;20223;-72
2021/10/08 06:00:27;;;;;;;58.30;2.55;;;6.00;1.00;;;;;;5135739;27;20236;-72
2021/10/08 06:02:54;;;;;;;58.65;3.38;;;6.00;1.00;;;;;;5135734;27;20208;-72
2021/10/08 06:05:21;;;;;;;57.83;2.50;;;6.00;1.00;;;;;;5135390;27;20672;-73
2021/10/08 06:07:48;;;;;;;58.58;2.70;;;6.10;1.00;;;;;;5135066;27;20917;-73
2021/10/08 06:10:17;;;;;;;58.40;2.75;;;6.10;1.00;;;;;;5135466;27;20214;-72
2021/10/08 06:12:44;;;;;;;58.58;2.80;;;6.20;1.00;;;;;;5135587;27;20560;-73
2021/10/08 06:15:11;;;;;;;58.60;2.95;;;6.20;1.00;;;;;;5135138;27;20243;-72
2021/10/08 06:17:38;;;;;;;58.42;2.72;;;6.20;1.00;;;;;;5134829;27;20669;-73
2021/10/08 06:20:06;;;;;;;58.90;3.20;;;6.30;1.00;;;;;;5135330;27;20211;-72
2021/10/08 06:22:35;;;;;;;58.28;2.83;;;6.30;1.00;;;;;;5135302;27;20203;-73
2021/10/08 06:25:02;;;;;;;59.00;3.10;;;6.30;1.00;;;;;;5134784;27;20265;-72
2021/10/08 06:27:31;;;;;;;58.38;2.63;;;6.30;1.00;;;;;;5134016;27;20196;-72
2021/10/08 06:29:57;;;;;;;58.28;2.80;;;6.40;1.00;;;;;;5135104;27;20204;-72
2021/10/08 06:32:24;;;;;;;73.95;4.30;;;6.40;1.00;;;;;;5135025;27;20299;-72
2021/10/08 06:34:51;;;;;;;58.25;2.80;;;6.40;1.00;;;;;;5134638;27;20299;-72
2021/10/08 06:37:18;;;;;;;58.47;2.70;;;6.50;1.00;;;;;;5134819;27;20224;-72
2021/10/08 06:39:45;;;;;;;58.58;2.80;;;6.60;1.00;;;;;;5135001;27;20590;-73
2021/10/08 06:42:12;;;;;;;59.10;3.80;;;6.60;1.00;;;;;;5134831;27;20247;-72
2021/10/08 06:44:40;;;;;;;58.33;2.70;;;6.70;1.00;;;;;;5134521;27;20242;-73
2021/10/08 06:47:07;;;;;;;58.28;2.75;;;6.80;1.00;;;;;;5134430;27;20882;-73
2021/10/08 06:49:34;;;;;;;58.28;2.80;;;6.90;1.00;;;;;;5134594;27;20622;-73
2021/10/08 06:52:01;;;;;;;58.87;3.30;;;7.00;1.00;;;;;;5134948;27;20204;-74
2021/10/08 06:54:28;;;;;;;58.35;2.85;;;7.10;1.00;;;;;;5134871;27;20943;-73
2021/10/08 06:56:55;;;;;;;58.47;2.80;;;7.30;1.00;;;;;;5134134;27;20238;-74
2021/10/08 06:59:21;;;;;;;58.67;3.17;;;7.40;1.00;;;;;;5134403;27;20314;-73
2021/10/08 07:01:51;;;;;;;58.40;2.90;;;7.40;1.00;;;;;;5134348;27;20210;-73
2021/10/08 07:04:18;;;;;;;58.50;2.77;;;7.60;1.00;;;;;;5134330;27;20539;-73
2021/10/08 07:06:45;;;;;;;57.80;3.10;;;7.70;1.00;;;;;;5134116;27;20439;-73
2021/10/08 07:09:12;;;;;;;58.23;2.77;;;7.80;1.00;;;;;;5134233;27;20464;-72
2021/10/08 07:11:39;;;;;;;58.50;3.00;;;8.00;1.00;;;;;;5134301;27;20454;-73
2021/10/08 07:14:06;;;;;;;58.13;2.90;;;8.10;1.00;;;;;;5134363;27;21037;-73
2021/10/08 07:16:33;;;;;;;58.37;2.80;;;8.10;1.00;;;;;;5133506;27;20813;-73
2021/10/08 07:19:08;;;;;;;58.47;3.07;;;8.10;1.00;;;;;;5134137;27;20510;-73
2021/10/08 07:21:35;;;;;;;59.00;3.00;;;8.10;1.00;;;;;;5134016;27;20459;-73
2021/10/08 07:24:02;;;;;;;58.27;2.70;;;8.20;1.00;;;;;;5134010;27;20550;-73
2021/10/08 07:26:31;;;;;;;58.47;2.90;;;8.30;1.00;;;;;;5133592;27;20443;-73
2021/10/08 07:28:58;;;;;;;58.17;2.70;;;8.30;1.00;;;;;;5133718;27;20463;-74
2021/10/08 07:31:25;;;;;;;58.50;3.00;;;8.30;1.00;;;;;;5134044;27;20534;-73
2021/10/08 07:33:53;;;;;;;58.37;2.63;;;8.30;1.00;;;;;;5133962;27;20454;-73
2021/10/08 07:36:21;;;;;;;58.27;2.97;;;8.40;1.00;;;;;;5133186;27;20543;-73
2021/10/08 07:38:48;;;;;;;58.07;2.83;;;8.40;1.00;;;;;;5132573;27;20493;-74
2021/10/08 07:41:16;;;;;;;58.60;3.17;;;8.40;1.00;;;;;;5133741;27;20831;-73
2021/10/08 07:43:43;;;;;;;58.17;2.87;;;8.40;1.00;;;;;;5133376;27;20951;-73
2021/10/08 07:46:10;;;;;;;58.50;3.33;;;8.50;1.00;;;;;;5133365;27;20913;-73
2021/10/08 07:48:38;;;;;;;58.30;2.70;;;8.50;1.00;;;;;;5133653;27;20497;-73
2021/10/08 07:51:05;;;;;;;58.03;2.80;;;8.50;1.00;;;;;;5133382;27;20908;-73
2021/10/08 07:53:33;;;;;;;58.37;3.30;;;8.60;1.00;;;;;;5133414;27;20866;-73
2021/10/08 07:56:01;;;;;;;58.33;2.77;;;8.60;1.00;;;;;;5132903;27;20452;-73
2021/10/08 07:58:28;;;;;;;58.50;3.20;;;8.70;1.00;;;;;;5133452;27;20574;-73
2021/10/08 08:00:56;;;;;;;59.30;2.77;;;8.80;1.00;;;;;;5133346;27;20447;-73
2021/10/08 08:03:23;;;;;;;58.37;2.80;;;8.90;1.00;;;;;;5133170;27;20956;-73
2021/10/08 08:05:50;;;;;;;58.50;3.23;;;8.90;1.00;;;;;;5132948;27;20535;-73
2021/10/08 08:08:17;;;;;;;58.37;2.90;;;9.00;1.00;;;;;;5133240;27;20463;-73
2021/10/08 08:10:46;;;;;;;58.70;3.40;;;9.10;1.00;;;;;;5132940;27;20547;-73
2021/10/08 08:13:13;;;;;;;58.33;2.70;;;9.30;1.00;;;;;;5133171;27;20474;-73
2021/10/08 08:15:40;;;;;;;58.17;2.63;;;9.40;1.00;;;;;;5132833;27;20485;-73
2021/10/08 08:18:07;;;;;;;58.43;3.20;;;9.50;1.00;;;;;;5132875;27;20576;-73
2021/10/08 08:20:34;;;;;;;58.57;3.27;;;9.60;1.00;;;;;;5132842;27;20458;-73
2021/10/08 08:23:01;;;;;;;58.13;2.57;;;9.80;1.00;;;;;;5133047;27;21101;-73
2021/10/08 08:25:28;;;;;;;58.23;2.67;;;9.90;1.00;;;;;;5132395;27;20547;-73
2021/10/08 08:27:56;;;;;;;58.87;3.30;;;10.10;1.00;;;;;;5131199;27;20499;-73
2021/10/08 08:30:23;;;;;;;58.07;2.60;;;10.30;1.00;;;;;;5111662;28;20459;-73
2021/10/08 08:32:50;;;;;;;58.27;3.10;;;10.50;1.00;;;;;;5123712;27;20483;-72
2021/10/08 08:35:17;;;;;;;58.37;3.40;;;10.90;1.00;;;;;;5111724;28;20843;-72
2021/10/08 08:37:44;;;;;;;58.10;2.77;;;11.30;1.00;;;;;;5110095;28;20949;-72
2021/10/08 08:40:11;;;;;;;58.17;2.70;;;11.70;1.00;;;;;;5111393;28;20480;-72
2021/10/08 08:42:38;;;;;;;58.30;2.77;;;12.00;1.00;;;;;;5111330;28;20445;-72
2021/10/08 08:45:07;;;;;;;58.97;3.50;;;12.40;1.00;;;;;;5111044;28;20541;-72
2021/10/08 08:47:35;;;;;;;58.27;2.80;;;12.70;1.00;;;;;;5110502;28;20814;-72
2021/10/08 08:50:03;;;;;;;58.47;3.60;;;13.00;1.00;;;;;;5113771;28;20457;-72
2021/10/08 08:52:29;;;;;;;58.40;3.00;;;13.20;1.00;;;;;;5115121;28;20447;-72
2021/10/08 08:54:56;;;;;;;58.10;2.80;;;13.50;1.00;;;;;;5115087;28;20503;-72
2021/10/08 08:57:23;;;;;;;58.50;3.13;;;13.80;1.00;;;;;;5115153;28;20508;-72
2021/10/08 08:59:58;;;;;;;58.20;2.77;;;13.90;1.00;;;;;;5115166;28;20469;-72
2021/10/08 09:02:30;;;;;;;58.37;2.90;;;14.10;1.00;;;;;;5114174;27;20453;-72
2021/10/08 09:04:57;;;;;;;58.37;2.90;;;14.20;1.00;;;;;;5114422;28;20532;-72
2021/10/08 09:07:31;;;;;;;58.33;2.90;;;14.20;1.00;;;;;;5114978;28;20528;-72
2021/10/08 09:10:09;;;;;;;58.27;2.77;;;14.30;1.00;;;;;;5115314;28;20822;-72
2021/10/08 09:12:38;;;;;;;58.50;2.90;;;14.40;1.00;;;;;;5115125;28;20536;-72
2021/10/08 09:15:06;;;;;;;58.07;3.00;;;14.50;1.00;;;;;;5114729;28;20453;-72
2021/10/08 09:17:34;;;;;;;58.13;2.60;;;14.60;1.00;;;;;;5114824;28;20573;-72
2021/10/08 09:20:04;;;;;;;58.00;2.80;;;14.70;1.00;;;;;;5115062;28;20442;-72
2021/10/08 09:22:49;;;;;;;58.80;2.87;;;14.80;1.00;;;;;;5115106;28;20482;-73
2021/10/08 09:25:19;;;;;;;58.60;2.90;;;14.90;1.00;;;;;;5115029;28;20454;-72
2021/10/08 09:27:49;;;;;;;57.93;2.73;;;15.00;1.00;;;;;;5114659;28;20443;-72
2021/10/08 09:30:16;;;;;;;58.43;2.70;;;15.00;1.00;;;;;;5114827;28;20439;-72
2021/10/08 09:32:45;;;;;;;58.17;2.60;;;15.00;1.00;;;;;;5114790;28;20537;-71
2021/10/08 09:35:14;;;;;;;58.40;3.00;;;15.10;1.00;;;;;;5112119;27;20493;-71
2021/10/08 09:37:42;;;;;;;58.77;2.93;;;15.20;1.00;;;;;;5114406;28;20849;-71
2021/10/08 09:40:27;;;;;;;58.17;2.70;;;15.20;1.00;;;;;;5114421;28;20495;-71
2021/10/08 09:43:04;;;;;;;57.73;2.60;;;15.30;1.00;;;;;;5115058;28;20444;-72
2021/10/08 09:45:39;;;;;;;58.07;2.70;;;15.40;1.00;;;;;;5114240;28;20504;-72
2021/10/08 09:48:07;;;;;;;60.30;3.50;;;15.40;1.00;;;;;;5114767;28;20563;-72
2021/10/08 09:50:34;;;;;;;58.13;2.70;;;15.40;1.00;;;;;;5114278;28;20454;-71
2021/10/08 09:53:12;;;;;;;58.10;2.70;;;15.30;1.00;;;;;;5114411;28;20838;-71
2021/10/08 09:55:40;;;;;;;57.97;2.80;;;15.30;1.00;;;;;;5135359;27;20529;-72
2021/10/08 09:58:08;;;;;;;58.30;2.73;;;15.30;1.00;;;;;;5134840;27;20493;-72
2021/10/08 10:00:38;;;;;;;58.60;3.13;;;15.30;1.00;;;;;;5134021;27;20662;-71
2021/10/08 10:03:07;;;;;;;58.20;2.80;;;15.40;1.00;;;;;;5135062;27;20447;-72
2021/10/08 10:05:35;;;;;;;57.87;2.70;;;15.40;1.00;;;;;;5133414;27;20454;-74
2021/10/08 10:08:02;;;;;;;58.30;3.00;;;15.50;1.00;;;;;;5114156;28;20495;-71
2021/10/08 10:10:29;;;;;;;58.13;2.70;;;15.60;1.00;;;;;;5114154;28;20532;-71
2021/10/08 10:12:59;;;;;;;58.30;3.03;;;15.60;1.00;;;;;;5113844;28;20448;-71
2021/10/08 10:15:26;;;;;;;58.10;2.50;;;15.60;1.00;;;;;;5114857;28;20460;-71
2021/10/08 10:17:54;;;;;;;57.87;2.90;;;15.70;1.00;;;;;;5113829;28;20523;-72
2021/10/08 10:20:22;;;;;;;58.07;2.40;;;15.80;1.00;;;;;;5114109;28;20535;-71
2021/10/08 10:22:50;;;;;;;59.37;3.20;;;15.90;1.00;;;;;;5114092;28;20484;-71
2021/10/08 10:25:17;;;;;;;57.87;2.40;;;16.00;1.00;;;;;;5114017;28;20547;-71
2021/10/08 10:27:45;;;;;;;57.83;2.40;;;16.10;1.00;;;;;;5113650;28;20540;-71
2021/10/08 10:30:12;;;;;;;58.17;2.60;;;16.20;1.00;;;;;;5113726;28;20868;-71
2021/10/08 10:32:46;;;;;;;57.80;2.60;;;16.20;1.00;;;;;;5113580;28;20475;-71
2021/10/08 10:35:46;;;;;;;58.17;2.80;;;16.30;1.00;;;;;;5114083;28;20449;-71
2021/10/08 10:38:38;;;;;;;58.53;3.63;;;16.50;1.00;;;;;;5114054;27;20666;-71
2021/10/08 10:41:21;;;;;;;57.97;2.70;;;16.60;1.00;;;;;;5109499;27;20498;-71
2021/10/08 10:43:51;;;;;;;58.20;3.40;;;16.80;1.00;;;;;;5134395;27;20875;-71
2021/10/08 10:46:37;;;;;;;57.87;2.60;;;16.90;1.00;;;;;;5134118;27;20479;-71
2021/10/08 10:52:21;;;;;;;58.57;2.77;;;17.10;1.00;;;;;;5133915;27;20920;-71
2021/10/08 10:55:17;;;;;;;58.17;2.60;;;17.20;1.00;;;;;;5134079;27;20547;-71
2021/10/08 10:58:01;;;;;;;59.03;3.10;;;17.30;1.00;;;;;;5133931;27;20450;-71
2021/10/08 11:00:41;;;;;;;57.47;2.47;;;17.40;1.00;;;;;;5134106;27;20528;-72
2021/10/08 11:03:14;;;;;;;58.10;2.50;;;17.40;1.00;;;;;;5133945;27;20483;-71
2021/10/08 11:06:03;;;;;;;58.17;3.20;;;17.50;1.00;;;;;;5133762;27;20814;-71
2021/10/08 11:08:30;;;;;;;57.77;2.60;;;17.70;1.00;;;;;;5133722;27;20457;-71
2021/10/08 11:11:22;;;;;;;58.23;2.57;;;17.70;1.00;;;;;;5132041;27;20868;-71
2021/10/08 11:13:49;;;;;;;57.97;2.90;;;17.90;1.00;;;;;;5108243;27;20452;-71
2021/10/08 11:16:30;;;;;;;57.57;2.17;;;18.00;1.00;;;;;;5133178;27;20460;-72
2021/10/08 11:18:57;;;;;;;57.93;2.60;;;18.30;1.00;;;;;;5132933;27;20483;-70
2021/10/08 11:21:51;;;;;;;58.03;2.73;;;18.50;1.00;;;;;;5132898;27;20440;-72
2021/10/08 11:24:23;;;;;;;57.93;2.50;;;18.90;1.00;;;;;;5073302;27;20492;-71
2021/10/08 11:27:00;;;;;;;57.63;2.40;;;19.30;1.00;;;;;;5132755;27;20528;-72
2021/10/08 11:29:30;;;;;;;57.83;2.30;;;19.50;1.00;;;;;;5132582;27;20464;-70
2021/10/08 11:32:18;;;;;;;58.80;3.80;;;19.60;1.00;;;;;;5132584;27;20533;-71
2021/10/08 11:34:49;;;;;;;57.67;2.70;;;19.70;1.00;;;;;;5123143;27;20907;-70
2021/10/08 11:37:16;;;;;;;58.43;2.90;;;19.60;1.00;;;;;;5133003;27;20527;-70
2021/10/08 11:39:44;;;;;;;57.73;2.30;;;19.50;1.00;;;;;;5131899;27;20576;-70
2021/10/08 11:42:14;;;;;;;59.90;2.73;;;19.40;1.00;;;;;;5130133;27;20884;-71
2021/10/08 11:44:55;;;;;;;57.60;2.70;;;19.40;1.00;;;;;;5131589;27;20523;-72
2021/10/08 11:47:26;;;;;;;58.17;2.70;;;19.50;1.00;;;;;;5132215;27;20453;-71
2021/10/08 11:50:05;;;;;;;58.10;2.60;;;19.40;1.00;;;;;;5133205;27;20826;-71
2021/10/08 11:52:35;;;;;;;58.10;2.57;;;19.30;1.00;;;;;;5133612;27;20970;-72
2021/10/08 11:55:07;;;;;;;58.00;2.50;;;19.10;1.00;;;;;;5134365;27;20532;-71
2021/10/08 11:57:51;;;;;;;57.37;2.53;;;19.00;1.00;;;;;;5135564;27;20536;-72
2021/10/08 12:00:19;;;;;;;57.80;2.30;;;19.00;1.00;;;;;;5134847;27;20519;-71
2021/10/08 12:02:59;;;;;;;57.97;2.70;;;19.10;1.00;;;;;;5134780;27;20528;-72
2021/10/08 12:05:27;;;;;;;58.10;2.40;;;19.10;1.00;;;;;;5135165;27;20441;-71
2021/10/08 12:07:57;;;;;;;58.20;2.80;;;19.10;1.00;;;;;;5135062;27;20460;-73
2021/10/08 12:10:25;;;;;;;59.20;3.00;;;19.10;1.00;;;;;;5134411;27;20440;-72
2021/10/08 12:12:54;;;;;;;58.20;2.93;;;19.10;1.00;;;;;;5132754;27;20889;-72
2021/10/08 12:15:26;;;;;;;58.20;2.80;;;19.00;1.00;;;;;;5132031;27;20476;-71
2021/10/08 12:17:54;;;;;;;57.73;2.80;;;19.00;1.00;;;;;;5132859;27;20544;-71
2021/10/08 12:20:23;;;;;;;58.30;2.40;;;18.90;1.00;;;;;;5132508;27;20921;-71
2021/10/08 12:22:51;;;;;;;58.60;3.00;;;19.00;1.00;;;;;;5132668;27;20441;-72
2021/10/08 12:25:21;;;;;;;57.77;2.60;;;19.10;1.00;;;;;;5129875;27;20949;-71
2021/10/08 12:27:49;;;;;;;58.37;2.90;;;19.30;1.00;;;;;;5132346;27;20453;-72
2021/10/08 12:30:17;;;;;;;58.00;2.50;;;19.50;1.00;;;;;;5132328;27;21015;-71
2021/10/08 12:33:02;;;;;;;57.80;2.97;;;19.80;1.00;;;;;;5132074;27;20537;-73
2021/10/08 12:35:29;;;;;;;58.17;2.40;;;20.10;1.00;;;;;;5131342;27;20541;-71
2021/10/08 12:37:59;;;;;;;57.73;2.30;;;20.40;1.00;;;;;;5132195;28;20807;-72
2021/10/08 12:40:26;;;;;;;57.97;2.20;;;20.70;1.00;;;;;;5132012;28;20443;-73
2021/10/08 12:42:55;;;;;;;58.00;2.30;;;20.90;1.00;;;;;;5132211;28;20490;-72
2021/10/08 12:45:32;;;;;;;59.20;3.10;;;21.10;1.00;;;;;;5131822;28;20947;-70
2021/10/08 12:48:00;;;;;;;58.03;2.53;;;21.30;1.00;;;;;;5132613;28;20982;-70
2021/10/08 12:50:28;;;;;;;57.77;2.70;;;21.60;1.00;;;;;;5131987;28;20441;-70
2021/10/08 12:52:56;;;;;;;58.20;2.60;;;21.70;1.00;;;;;;5132608;28;20441;-71
2021/10/08 12:55:29;;;;;;;57.57;2.60;;;21.80;1.00;;;;;;5122595;28;20446;-72
2021/10/08 12:58:07;;;;;;;58.30;3.00;;;22.40;1.00;;;;;;5111280;28;20483;-69
2021/10/08 13:00:43;;;;;;;57.87;2.40;;;23.20;1.00;;;;;;5111555;28;20868;-72
2021/10/08 13:03:27;;;;;;;57.77;2.50;;;23.80;1.00;;;;;;5112010;28;20513;-69
2021/10/08 13:05:55;;;;;;;57.87;2.60;;;24.30;1.00;;;;;;5110993;28;20818;-70